createdAt,value
2023-04-01T00:00:49.823Z,17.80
2023-04-01T00:03:52.094Z,17.82
2023-04-01T00:06:54.243Z,17.78
2023-04-01T00:09:56.217Z,17.76
2023-04-01T00:12:58.433Z,17.77
2023-04-01T00:16:03.394Z,17.76
2023-04-01T00:19:05.980Z,17.78
2023-04-01T00:22:10.195Z,17.76
2023-04-01T00:25:12.276Z,17.75
2023-04-01T00:28:15.714Z,17.75
2023-04-01T00:31:18.401Z,17.73
2023-04-01T00:34:21.392Z,17.76
2023-04-01T00:37:23.831Z,17.72
2023-04-01T00:40:32.137Z,17.70
2023-04-01T00:43:35.148Z,17.70
2023-04-01T00:46:37.804Z,17.70
2023-04-01T00:49:47.330Z,17.69
2023-04-01T00:52:49.421Z,17.69
2023-04-01T00:55:59.494Z,17.67
2023-04-01T00:59:23.306Z,17.65
2023-04-01T01:02:26.006Z,17.66
2023-04-01T01:05:49.627Z,17.65
2023-04-01T01:09:08.463Z,17.64
2023-04-01T01:12:42.151Z,17.61
2023-04-01T01:16:13.803Z,17.65
2023-04-01T01:19:48.960Z,17.63
2023-04-01T01:23:07.459Z,17.59
2023-04-01T01:26:38.634Z,17.58
2023-04-01T01:29:58.648Z,17.58
2023-04-01T01:33:33.121Z,17.59
2023-04-01T01:36:38.569Z,17.58
2023-04-01T01:39:41.879Z,17.54
2023-04-01T01:42:54.184Z,17.54
2023-04-01T01:46:00.206Z,17.54
2023-04-01T01:49:04.170Z,17.52
2023-04-01T01:52:06.334Z,17.53
2023-04-01T01:55:35.378Z,17.50
2023-04-01T01:58:43.343Z,17.51
2023-04-01T02:01:50.407Z,17.51
2023-04-01T02:04:53.713Z,17.51
2023-04-01T02:08:14.449Z,17.50
2023-04-01T02:11:22.521Z,17.48
2023-04-01T02:14:32.059Z,17.48
2023-04-01T02:17:38.904Z,17.48
2023-04-01T02:20:41.965Z,17.47
2023-04-01T02:23:44.922Z,17.46
2023-04-01T02:26:47.932Z,17.45
2023-04-01T02:29:50.648Z,17.45
2023-04-01T02:32:53.620Z,17.43
2023-04-01T02:35:55.773Z,17.43
2023-04-01T02:39:03.005Z,17.41
2023-04-01T02:42:06.115Z,17.40
2023-04-01T02:45:09.293Z,17.40
2023-04-01T02:48:11.462Z,17.40
2023-04-01T02:51:13.472Z,17.39
2023-04-01T02:54:15.698Z,17.38
2023-04-01T02:57:17.858Z,17.37
2023-04-01T03:00:20.300Z,17.37
2023-04-01T03:03:22.369Z,17.38
2023-04-01T03:06:24.385Z,17.35
2023-04-01T03:09:26.625Z,17.35
2023-04-01T03:12:28.609Z,17.35
2023-04-01T03:15:31.007Z,17.34
2023-04-01T03:18:33.341Z,17.33
2023-04-01T03:21:35.406Z,17.32
2023-04-01T03:24:37.457Z,17.34
2023-04-01T03:27:39.737Z,17.31
2023-04-01T03:30:41.957Z,17.30
2023-04-01T03:33:44.525Z,17.30
2023-04-01T03:36:46.588Z,17.30
2023-04-01T03:39:48.756Z,17.28
2023-04-01T03:42:51.617Z,17.30
2023-04-01T03:45:55.385Z,17.30
2023-04-01T03:48:57.431Z,17.28
2023-04-01T03:51:59.787Z,17.25
2023-04-01T03:55:02.383Z,17.26
2023-04-01T03:58:06.063Z,17.24
2023-04-01T04:01:21.870Z,17.25
2023-04-01T04:04:24.063Z,17.24
2023-04-01T04:07:26.114Z,17.24
2023-04-01T04:10:30.073Z,17.21
2023-04-01T04:13:32.189Z,17.21
2023-04-01T04:16:37.455Z,17.21
2023-04-01T04:19:39.454Z,17.20
2023-04-01T04:22:41.656Z,17.18
2023-04-01T04:25:58.207Z,17.20
2023-04-01T04:29:00.524Z,17.19
2023-04-01T04:32:02.701Z,17.18
2023-04-01T04:35:05.124Z,17.18
2023-04-01T04:38:07.177Z,17.18
2023-04-01T04:41:13.725Z,17.16
2023-04-01T04:44:15.804Z,17.18
2023-04-01T04:47:17.959Z,17.16
2023-04-01T04:50:20.266Z,17.15
2023-04-01T04:53:22.327Z,17.15
2023-04-01T04:56:26.242Z,17.16
2023-04-01T04:59:28.286Z,17.13
2023-04-01T05:02:30.891Z,17.13
2023-04-01T05:05:33.159Z,17.14
2023-04-01T05:08:35.855Z,17.10
2023-04-01T05:11:38.018Z,17.09
2023-04-01T05:14:40.650Z,17.09
2023-04-01T05:17:42.950Z,17.10
2023-04-01T05:20:53.881Z,17.13
2023-04-01T05:23:56.064Z,17.08
2023-04-01T05:26:59.226Z,17.08
2023-04-01T05:30:01.579Z,17.09
2023-04-01T05:33:04.472Z,17.08
2023-04-01T05:36:15.822Z,17.06
2023-04-01T05:39:18.042Z,17.06
2023-04-01T05:42:20.249Z,17.06
2023-04-01T05:45:22.749Z,17.06
2023-04-01T05:48:24.998Z,17.06
2023-04-01T05:51:27.297Z,17.05
2023-04-01T05:54:29.650Z,17.32
2023-04-01T05:57:32.183Z,17.59
2023-04-01T06:00:34.449Z,17.76
2023-04-01T06:03:37.251Z,17.83
2023-04-01T06:06:40.618Z,17.83
2023-04-01T06:09:43.530Z,17.92
2023-04-01T06:13:02.900Z,18.03
2023-04-01T06:16:23.811Z,18.03
2023-04-01T06:19:50.547Z,18.07
2023-04-01T06:23:25.267Z,18.18
2023-04-01T06:27:01.353Z,18.21
2023-04-01T06:30:12.405Z,18.21
2023-04-01T06:33:35.426Z,18.21
2023-04-01T06:37:02.206Z,18.15
2023-04-01T06:40:21.349Z,18.20
2023-04-01T06:43:51.304Z,18.20
2023-04-01T06:47:27.796Z,18.18
2023-04-01T06:51:16.722Z,18.24
2023-04-01T06:54:33.184Z,18.33
2023-04-01T06:57:36.550Z,18.40
2023-04-01T07:00:45.471Z,18.41
2023-04-01T07:04:11.210Z,18.40
2023-04-01T07:07:31.917Z,18.40
2023-04-01T07:10:53.066Z,18.42
2023-04-01T07:14:16.557Z,18.44
2023-04-01T07:17:23.854Z,18.42
2023-04-01T07:20:36.263Z,18.41
2023-04-01T07:23:43.366Z,18.47
2023-04-01T07:26:45.683Z,18.47
2023-04-01T07:29:48.619Z,18.52
2023-04-01T07:33:11.069Z,18.59
2023-04-01T07:36:36.482Z,18.69
2023-04-01T07:39:46.626Z,18.72
2023-04-01T07:42:55.738Z,18.70
2023-04-01T07:46:20.602Z,18.72
2023-04-01T07:49:42.577Z,18.66
2023-04-01T07:52:53.694Z,18.66
2023-04-01T07:56:17.308Z,18.66
2023-04-01T07:59:38.934Z,18.77
2023-04-01T08:02:53.405Z,18.78
2023-04-01T08:06:00.222Z,18.79
2023-04-01T08:09:24.438Z,18.79
2023-04-01T08:12:48.520Z,18.80
2023-04-01T08:16:04.996Z,18.92
2023-04-01T08:19:32.446Z,18.99
2023-04-01T08:22:44.665Z,18.97
2023-04-01T08:26:01.995Z,18.97
2023-04-01T08:29:31.702Z,18.87
2023-04-01T08:32:41.756Z,18.84
2023-04-01T08:36:02.946Z,18.87
2023-04-01T08:39:14.509Z,18.95
2023-04-01T08:42:28.712Z,19.16
2023-04-01T08:45:31.108Z,19.23
2023-04-01T08:49:04.109Z,19.28
2023-04-01T08:52:09.167Z,19.30
2023-04-01T08:55:27.744Z,19.33
2023-04-01T08:59:07.410Z,19.33
2023-04-01T09:02:47.062Z,19.41
2023-04-01T09:06:20.578Z,19.43
2023-04-01T09:09:37.590Z,19.43
2023-04-01T09:12:58.824Z,19.48
2023-04-01T09:16:31.502Z,19.53
2023-04-01T09:19:42.829Z,19.69
2023-04-01T09:23:06.637Z,19.77
2023-04-01T09:26:35.838Z,19.85
2023-04-01T09:29:55.941Z,19.86
2023-04-01T09:33:28.808Z,19.88
2023-04-01T09:36:45.272Z,19.92
2023-04-01T09:40:19.823Z,19.94
2023-04-01T09:43:43.609Z,19.95
2023-04-01T09:47:30.671Z,19.92
2023-04-01T09:50:50.778Z,19.86
2023-04-01T09:54:24.797Z,19.84
2023-04-01T09:57:57.693Z,19.80
2023-04-01T10:01:35.850Z,19.84
2023-04-01T10:05:20.926Z,19.98
2023-04-01T10:08:42.602Z,20.00
2023-04-01T10:12:08.682Z,19.98
2023-04-01T10:15:31.025Z,19.97
2023-04-01T10:19:09.496Z,19.95
2023-04-01T10:22:17.071Z,19.96
2023-04-01T10:25:19.141Z,19.95
2023-04-01T10:28:54.317Z,20.05
2023-04-01T10:32:22.974Z,20.20
2023-04-01T10:35:44.205Z,20.20
2023-04-01T10:39:01.378Z,20.22
2023-04-01T10:42:41.549Z,20.12
2023-04-01T10:46:21.150Z,20.04
2023-04-01T10:49:43.514Z,19.98
2023-04-01T10:53:13.228Z,19.98
2023-04-01T10:56:49.352Z,19.92
2023-04-01T11:00:21.953Z,19.91
2023-04-01T11:03:33.409Z,19.86
2023-04-01T11:06:54.272Z,19.80
2023-04-01T11:10:33.881Z,19.79
2023-04-01T11:14:15.854Z,19.90
2023-04-01T11:17:39.705Z,19.98
2023-04-01T11:21:16.659Z,19.91
2023-04-01T11:24:43.869Z,19.88
2023-04-01T11:27:48.613Z,19.92
2023-04-01T11:30:56.577Z,19.95
2023-04-01T11:34:23.118Z,20.00
2023-04-01T11:37:37.251Z,19.88
2023-04-01T11:40:46.118Z,19.82
2023-04-01T11:44:14.059Z,19.83
2023-04-01T11:47:46.424Z,19.82
2023-04-01T11:51:21.485Z,19.84
2023-04-01T11:55:07.258Z,19.87
2023-04-01T11:58:26.446Z,19.98
2023-04-01T12:01:31.768Z,19.98
2023-04-01T12:04:42.807Z,19.88
2023-04-01T12:08:03.240Z,19.85
2023-04-01T12:11:34.109Z,19.84
2023-04-01T12:14:50.546Z,19.91
2023-04-01T12:17:55.786Z,20.16
2023-04-01T12:21:09.965Z,18.88
2023-04-01T12:24:30.377Z,19.67
2023-04-01T12:28:09.081Z,20.40
2023-04-01T12:31:24.748Z,20.09
2023-04-01T12:34:58.997Z,19.96
2023-04-01T12:38:39.861Z,19.89
2023-04-01T12:42:08.358Z,19.88
2023-04-01T12:45:34.088Z,19.86
2023-04-01T12:48:48.616Z,19.85
2023-04-01T12:52:04.984Z,19.79
2023-04-01T12:55:32.867Z,19.73
2023-04-01T12:58:54.148Z,19.67
2023-04-01T13:02:34.052Z,19.70
2023-04-01T13:05:51.461Z,19.69
2023-04-01T13:09:35.591Z,19.77
2023-04-01T13:13:04.118Z,19.85
2023-04-01T13:16:25.382Z,19.95
2023-04-01T13:20:04.183Z,20.01
2023-04-01T13:23:19.369Z,20.01
2023-04-01T13:26:36.251Z,20.03
2023-04-01T13:29:58.691Z,19.99
2023-04-01T13:33:12.664Z,19.99
2023-04-01T13:36:43.435Z,19.97
2023-04-01T13:40:23.151Z,19.97
2023-04-01T13:43:34.556Z,19.38
2023-04-01T13:47:03.733Z,17.84
2023-04-01T13:50:24.207Z,17.55
2023-04-01T13:53:40.985Z,17.78
2023-04-01T13:56:56.872Z,19.13
2023-04-01T14:00:35.855Z,19.62
2023-04-01T14:03:57.823Z,17.55
2023-04-01T14:07:41.175Z,16.76
2023-04-01T14:10:59.445Z,17.55
2023-04-01T14:14:09.703Z,18.84
2023-04-01T14:17:39.799Z,19.23
2023-04-01T14:21:12.856Z,19.54
2023-04-01T14:24:47.694Z,19.90
2023-04-01T14:28:04.118Z,20.11
2023-04-01T14:31:19.300Z,20.16
2023-04-01T14:34:49.745Z,20.18
2023-04-01T14:38:03.656Z,20.16
2023-04-01T14:41:30.563Z,20.16
2023-04-01T14:44:36.167Z,20.15
2023-04-01T14:48:05.542Z,20.13
2023-04-01T14:51:30.843Z,20.13
2023-04-01T14:54:36.531Z,20.10
2023-04-01T14:57:38.609Z,20.10
2023-04-01T15:01:17.765Z,20.07
2023-04-01T15:04:45.373Z,20.07
2023-04-01T15:08:06.181Z,20.03
2023-04-01T15:11:34.562Z,20.02
2023-04-01T15:15:05.477Z,20.00
2023-04-01T15:18:12.424Z,19.99
2023-04-01T15:21:28.709Z,19.97
2023-04-01T15:25:07.989Z,19.95
2023-04-01T15:28:21.469Z,19.91
2023-04-01T15:31:45.769Z,19.88
2023-04-01T15:35:19.829Z,19.80
2023-04-01T15:38:40.125Z,19.81
2023-04-01T15:41:55.632Z,19.76
2023-04-01T15:45:35.836Z,19.75
2023-04-01T15:48:45.721Z,19.72
2023-04-01T15:52:15.737Z,19.68
2023-04-01T15:55:44.055Z,19.65
2023-04-01T15:59:08.243Z,19.61
2023-04-01T16:02:24.114Z,19.58
2023-04-01T16:05:38.523Z,19.61
2023-04-01T16:08:59.131Z,19.61
2023-04-01T16:12:07.378Z,19.60
2023-04-01T16:15:59.050Z,19.60
2023-04-01T16:19:24.771Z,19.55
2023-04-01T16:22:36.262Z,19.53
2023-04-01T16:25:46.253Z,19.51
2023-04-01T16:29:33.276Z,19.46
2023-04-01T16:32:38.241Z,19.39
2023-04-01T16:36:01.899Z,19.36
2023-04-01T16:39:23.619Z,19.39
2023-04-01T16:42:42.465Z,19.37
2023-04-01T16:45:54.777Z,19.32
2023-04-01T16:49:12.174Z,19.31
2023-04-01T16:52:17.364Z,19.29
2023-04-01T16:55:21.967Z,19.26
2023-04-01T16:58:50.178Z,19.26
2023-04-01T17:02:01.407Z,19.23
2023-04-01T17:05:14.045Z,19.22
2023-04-01T17:08:34.832Z,19.23
2023-04-01T17:12:00.654Z,19.12
2023-04-01T17:15:24.378Z,19.09
2023-04-01T17:18:38.187Z,19.15
2023-04-01T17:22:06.771Z,19.13
2023-04-01T17:25:35.614Z,19.12
2023-04-01T17:29:12.774Z,19.09
2023-04-01T17:32:32.217Z,19.08
2023-04-01T17:35:40.504Z,19.05
2023-04-01T17:38:52.736Z,19.03
2023-04-01T17:42:22.109Z,19.02
2023-04-01T17:45:38.263Z,19.01
2023-04-01T17:48:54.049Z,19.01
2023-04-01T17:52:17.706Z,19.00
2023-04-01T17:55:30.078Z,18.98
2023-04-01T17:58:38.161Z,18.98
2023-04-01T18:02:04.391Z,18.95
2023-04-01T18:05:22.034Z,18.96
2023-04-01T18:08:56.112Z,18.94
2023-04-01T18:12:00.655Z,18.94
2023-04-01T18:15:33.574Z,18.92
2023-04-01T18:19:00.789Z,18.92
2023-04-01T18:22:18.399Z,18.87
2023-04-01T18:25:27.620Z,18.76
2023-04-01T18:28:50.959Z,18.72
2023-04-01T18:32:07.054Z,18.66
2023-04-01T18:35:21.505Z,18.66
2023-04-01T18:38:35.186Z,18.62
2023-04-01T18:42:01.007Z,18.63
2023-04-01T18:45:29.089Z,18.59
2023-04-01T18:48:39.849Z,18.57
2023-04-01T18:51:59.196Z,18.55
2023-04-01T18:55:04.485Z,18.55
2023-04-01T18:58:36.812Z,18.53
2023-04-01T19:02:04.733Z,18.51
2023-04-01T19:05:19.229Z,18.49
2023-04-01T19:08:30.391Z,18.47
2023-04-01T19:11:41.289Z,18.47
2023-04-01T19:14:52.495Z,18.44
2023-04-01T19:18:18.714Z,18.42
2023-04-01T19:21:32.795Z,18.42
2023-04-01T19:25:02.563Z,18.40
2023-04-01T19:28:28.983Z,18.38
2023-04-01T19:31:51.660Z,18.38
2023-04-01T19:35:11.757Z,18.35
2023-04-01T19:38:22.347Z,18.36
2023-04-01T19:41:36.044Z,18.34
2023-04-01T19:44:56.862Z,18.33
2023-04-01T19:48:04.425Z,18.32
2023-04-01T19:51:12.118Z,18.30
2023-04-01T19:54:36.703Z,18.28
2023-04-01T19:57:42.876Z,18.27
2023-04-01T20:00:51.216Z,18.26
2023-04-01T20:04:02.470Z,18.25
2023-04-01T20:07:19.870Z,18.25
2023-04-01T20:10:34.951Z,18.22
2023-04-01T20:14:12.664Z,18.22
2023-04-01T20:17:33.707Z,18.21
2023-04-01T20:20:36.071Z,18.19
2023-04-01T20:24:00.286Z,18.17
2023-04-01T20:27:14.704Z,18.17
2023-04-01T20:30:38.162Z,18.15
2023-04-01T20:33:58.758Z,18.15
2023-04-01T20:37:19.909Z,18.13
2023-04-01T20:40:44.622Z,18.12
2023-04-01T20:44:07.571Z,18.11
2023-04-01T20:47:48.413Z,18.10
2023-04-01T20:51:07.049Z,18.10
2023-04-01T20:54:48.236Z,18.07
2023-04-01T20:58:07.317Z,18.06
2023-04-01T21:01:40.319Z,18.06
2023-04-01T21:05:05.443Z,18.06
2023-04-01T21:08:37.357Z,18.04
2023-04-01T21:12:08.684Z,18.06
2023-04-01T21:15:28.670Z,18.05
2023-04-01T21:18:48.550Z,18.03
2023-04-01T21:22:09.043Z,18.03
2023-04-01T21:25:40.369Z,17.99
2023-04-01T21:29:14.418Z,17.98
2023-04-01T21:32:46.946Z,17.98
2023-04-01T21:36:25.177Z,17.96
2023-04-01T21:39:53.412Z,17.95
2023-04-01T21:43:21.654Z,17.93
2023-04-01T21:46:54.920Z,17.94
2023-04-01T21:50:25.608Z,17.93
2023-04-01T21:53:44.856Z,17.92
2023-04-01T21:57:30.655Z,17.91
2023-04-01T22:00:49.210Z,17.91
2023-04-01T22:04:14.317Z,17.89
2023-04-01T22:07:20.207Z,17.88
2023-04-01T22:11:04.164Z,17.85
2023-04-01T22:14:28.589Z,17.85
2023-04-01T22:17:52.954Z,17.84
2023-04-01T22:21:10.466Z,17.83
2023-04-01T22:24:25.340Z,17.83
2023-04-01T22:27:30.402Z,17.81
2023-04-01T22:30:39.680Z,17.83
2023-04-01T22:33:50.897Z,17.80
2023-04-01T22:37:13.212Z,17.79
2023-04-01T22:40:35.925Z,17.79
2023-04-01T22:43:41.302Z,17.78
2023-04-01T22:47:00.360Z,17.78
2023-04-01T22:50:21.701Z,17.77
2023-04-01T22:53:48.014Z,17.76
2023-04-01T22:57:20.521Z,17.74
2023-04-01T23:00:33.829Z,17.73
2023-04-01T23:03:44.903Z,17.72
2023-04-01T23:06:57.441Z,17.70
2023-04-01T23:10:02.195Z,17.72
2023-04-01T23:13:05.729Z,17.69
2023-04-01T23:16:09.194Z,17.68
2023-04-01T23:19:25.886Z,17.66
2023-04-01T23:22:57.725Z,17.67
2023-04-01T23:26:18.900Z,17.65
2023-04-01T23:29:22.717Z,17.65
2023-04-01T23:32:27.243Z,17.63
2023-04-01T23:35:29.423Z,17.63
2023-04-01T23:38:57.657Z,17.63
2023-04-01T23:42:16.644Z,17.62
2023-04-01T23:45:21.666Z,17.60
2023-04-01T23:48:33.304Z,17.60
2023-04-01T23:51:47.349Z,17.59
2023-04-01T23:54:51.931Z,17.58
2023-04-01T23:58:19.520Z,17.56
